sensor_id;sensor_type;location;lat;lon;timestamp;P1;durP1;ratioP1;P2;durP2;ratioP2
60718;SDS011;46567;51.660;5.824;2024-03-17T00:01:50;14.5;;;8.0;;
60718;SDS011;46567;51.660;5.824;2024-03-17T00:06:50;11.3;;;6.8;;
60718;SDS011;46567;51.660;5.824;2024-03-17T00:11:50;12.5;;;7.3;;
60718;SDS011;46567;51.660;5.824;2024-03-17T00:16:50;10.3;;;7.5;;
60718;SDS011;46567;51.660;5.824;2024-03-17T00:21:50;10.4;;;7.2;;
60718;SDS011;46567;51.660;5.824;2024-03-17T00:26:50;10.8;;;6.7;;
60718;SDS011;46567;51.660;5.824;2024-03-17T00:31:50;9.5;;;6.4;;
60718;SDS011;46567;51.660;5.824;2024-03-17T00:36:50;9.6;;;6.2;;
60718;SDS011;46567;51.660;5.824;2024-03-17T00:41:50;9.6;;;6.1;;
60718;SDS011;46567;51.660;5.824;2024-03-17T00:46:50;10.1;;;5.6;;
60718;SDS011;46567;51.660;5.824;2024-03-17T00:51:50;10.1;;;5.9;;
60718;SDS011;46567;51.660;5.824;2024-03-17T00:56:50;10.1;;;6.1;;
60718;SDS011;46567;51.660;5.824;2024-03-17T01:06:50;9.2;;;6.2;;
60718;SDS011;46567;51.660;5.824;2024-03-17T01:11:50;10.9;;;6.7;;
60718;SDS011;46567;51.660;5.824;2024-03-17T01:16:50;9.2;;;6.1;;
60718;SDS011;46567;51.660;5.824;2024-03-17T01:21:50;15.7;;;6.9;;
60718;SDS011;46567;51.660;5.824;2024-03-17T01:26:50;10.0;;;7.0;;
60718;SDS011;46567;51.660;5.824;2024-03-17T01:31:50;12.0;;;7.2;;
60718;SDS011;46567;51.660;5.824;2024-03-17T01:36:50;11.2;;;6.9;;
60718;SDS011;46567;51.660;5.824;2024-03-17T01:41:50;13.0;;;6.9;;
60718;SDS011;46567;51.660;5.824;2024-03-17T01:46:50;12.3;;;7.8;;
60718;SDS011;46567;51.660;5.824;2024-03-17T01:51:50;10.3;;;6.3;;
60718;SDS011;46567;51.660;5.824;2024-03-17T01:56:50;9.5;;;6.2;;
60718;SDS011;46567;51.660;5.824;2024-03-17T02:01:50;9.2;;;6.4;;
60718;SDS011;46567;51.660;5.824;2024-03-17T02:06:50;12.9;;;6.5;;
60718;SDS011;46567;51.660;5.824;2024-03-17T02:11:50;11.3;;;6.4;;
60718;SDS011;46567;51.660;5.824;2024-03-17T02:16:50;10.3;;;6.5;;
60718;SDS011;46567;51.660;5.824;2024-03-17T02:21:50;14.7;;;6.1;;
60718;SDS011;46567;51.660;5.824;2024-03-17T02:26:50;17.1;;;7.3;;
60718;SDS011;46567;51.660;5.824;2024-03-17T02:31:50;10.1;;;6.8;;
60718;SDS011;46567;51.660;5.824;2024-03-17T02:36:50;11.8;;;6.7;;
60718;SDS011;46567;51.660;5.824;2024-03-17T02:41:50;8.6;;;6.5;;
60718;SDS011;46567;51.660;5.824;2024-03-17T02:46:50;10.9;;;6.8;;
60718;SDS011;46567;51.660;5.824;2024-03-17T02:51:50;12.0;;;7.1;;
60718;SDS011;46567;51.660;5.824;2024-03-17T02:56:50;10.0;;;7.0;;
60718;SDS011;46567;51.660;5.824;2024-03-17T03:01:51;11.2;;;6.6;;
60718;SDS011;46567;51.660;5.824;2024-03-17T03:06:50;14.6;;;7.7;;
60718;SDS011;46567;51.660;5.824;2024-03-17T03:11:50;9.9;;;6.6;;
60718;SDS011;46567;51.660;5.824;2024-03-17T03:16:50;11.6;;;7.3;;
60718;SDS011;46567;51.660;5.824;2024-03-17T03:21:50;10.9;;;6.6;;
60718;SDS011;46567;51.660;5.824;2024-03-17T03:26:50;10.9;;;7.2;;
60718;SDS011;46567;51.660;5.824;2024-03-17T03:31:50;14.7;;;7.6;;
60718;SDS011;46567;51.660;5.824;2024-03-17T03:36:50;16.2;;;8.2;;
60718;SDS011;46567;51.660;5.824;2024-03-17T03:41:50;14.1;;;7.7;;
60718;SDS011;46567;51.660;5.824;2024-03-17T03:46:50;10.8;;;6.7;;
60718;SDS011;46567;51.660;5.824;2024-03-17T03:51:50;11.9;;;7.9;;
60718;SDS011;46567;51.660;5.824;2024-03-17T03:56:50;12.5;;;6.9;;
60718;SDS011;46567;51.660;5.824;2024-03-17T04:01:50;13.7;;;7.5;;
60718;SDS011;46567;51.660;5.824;2024-03-17T04:06:50;14.3;;;8.4;;
60718;SDS011;46567;51.660;5.824;2024-03-17T04:11:50;11.5;;;7.7;;
60718;SDS011;46567;51.660;5.824;2024-03-17T04:16:50;16.2;;;7.9;;
60718;SDS011;46567;51.660;5.824;2024-03-17T04:21:51;11.6;;;8.0;;
60718;SDS011;46567;51.660;5.824;2024-03-17T04:26:50;13.2;;;8.0;;
60718;SDS011;46567;51.660;5.824;2024-03-17T04:31:50;16.3;;;8.9;;
60718;SDS011;46567;51.660;5.824;2024-03-17T04:36:50;12.1;;;7.8;;
60718;SDS011;46567;51.660;5.824;2024-03-17T04:41:50;13.4;;;7.9;;
60718;SDS011;46567;51.660;5.824;2024-03-17T04:46:50;13.7;;;8.0;;
60718;SDS011;46567;51.660;5.824;2024-03-17T04:51:50;13.0;;;8.4;;
60718;SDS011;46567;51.660;5.824;2024-03-17T04:56:50;13.3;;;8.3;;
60718;SDS011;46567;51.660;5.824;2024-03-17T05:06:51;14.0;;;8.8;;
60718;SDS011;46567;51.660;5.824;2024-03-17T05:11:50;17.1;;;8.5;;
60718;SDS011;46567;51.660;5.824;2024-03-17T05:16:50;12.8;;;8.5;;
60718;SDS011;46567;51.660;5.824;2024-03-17T05:21:50;13.3;;;8.1;;
60718;SDS011;46567;51.660;5.824;2024-03-17T05:26:50;16.3;;;8.3;;
60718;SDS011;46567;51.660;5.824;2024-03-17T05:31:50;12.3;;;7.6;;
60718;SDS011;46567;51.660;5.824;2024-03-17T05:36:50;17.3;;;9.0;;
60718;SDS011;46567;51.660;5.824;2024-03-17T05:41:51;15.2;;;8.8;;
60718;SDS011;46567;51.660;5.824;2024-03-17T05:46:50;14.1;;;8.2;;
60718;SDS011;46567;51.660;5.824;2024-03-17T05:51:50;14.7;;;8.1;;
60718;SDS011;46567;51.660;5.824;2024-03-17T05:56:50;14.1;;;8.4;;
60718;SDS011;46567;51.660;5.824;2024-03-17T06:01:50;13.0;;;7.7;;
60718;SDS011;46567;51.660;5.824;2024-03-17T06:06:50;14.2;;;8.4;;
60718;SDS011;46567;51.660;5.824;2024-03-17T06:11:50;12.1;;;7.9;;
60718;SDS011;46567;51.660;5.824;2024-03-17T06:16:50;14.9;;;8.0;;
60718;SDS011;46567;51.660;5.824;2024-03-17T06:21:50;16.2;;;9.0;;
60718;SDS011;46567;51.660;5.824;2024-03-17T06:26:50;15.9;;;9.3;;
60718;SDS011;46567;51.660;5.824;2024-03-17T06:31:50;13.7;;;7.6;;
60718;SDS011;46567;51.660;5.824;2024-03-17T06:36:50;17.5;;;8.2;;
60718;SDS011;46567;51.660;5.824;2024-03-17T06:41:50;12.6;;;8.0;;
60718;SDS011;46567;51.660;5.824;2024-03-17T06:46:50;14.2;;;8.1;;
60718;SDS011;46567;51.660;5.824;2024-03-17T06:51:50;21.5;;;9.4;;
60718;SDS011;46567;51.660;5.824;2024-03-17T06:56:50;12.4;;;7.8;;
60718;SDS011;46567;51.660;5.824;2024-03-17T07:01:50;12.1;;;7.4;;
60718;SDS011;46567;51.660;5.824;2024-03-17T07:06:50;15.5;;;8.0;;
60718;SDS011;46567;51.660;5.824;2024-03-17T07:11:50;13.0;;;7.4;;
60718;SDS011;46567;51.660;5.824;2024-03-17T07:16:50;14.2;;;7.4;;
60718;SDS011;46567;51.660;5.824;2024-03-17T07:21:50;14.3;;;7.1;;
60718;SDS011;46567;51.660;5.824;2024-03-17T07:26:50;14.2;;;7.3;;
60718;SDS011;46567;51.660;5.824;2024-03-17T07:31:50;15.0;;;7.3;;
60718;SDS011;46567;51.660;5.824;2024-03-17T07:36:50;11.5;;;7.5;;
60718;SDS011;46567;51.660;5.824;2024-03-17T07:41:50;16.1;;;7.6;;
60718;SDS011;46567;51.660;5.824;2024-03-17T07:46:50;12.6;;;6.5;;
60718;SDS011;46567;51.660;5.824;2024-03-17T07:51:50;11.0;;;6.4;;
60718;SDS011;46567;51.660;5.824;2024-03-17T07:56:50;12.9;;;7.3;;
60718;SDS011;46567;51.660;5.824;2024-03-17T08:01:50;11.9;;;6.3;;
60718;SDS011;46567;51.660;5.824;2024-03-17T08:06:50;7.7;;;5.7;;
60718;SDS011;46567;51.660;5.824;2024-03-17T08:11:51;12.4;;;6.5;;
60718;SDS011;46567;51.660;5.824;2024-03-17T08:16:50;9.7;;;6.1;;
60718;SDS011;46567;51.660;5.824;2024-03-17T08:21:50;8.8;;;5.7;;
60718;SDS011;46567;51.660;5.824;2024-03-17T08:26:50;10.2;;;6.2;;
60718;SDS011;46567;51.660;5.824;2024-03-17T08:31:50;8.5;;;5.9;;
60718;SDS011;46567;51.660;5.824;2024-03-17T08:36:50;12.1;;;6.1;;
60718;SDS011;46567;51.660;5.824;2024-03-17T08:41:50;10.6;;;5.7;;
60718;SDS011;46567;51.660;5.824;2024-03-17T08:46:50;8.8;;;5.2;;
60718;SDS011;46567;51.660;5.824;2024-03-17T08:51:50;7.5;;;5.4;;
60718;SDS011;46567;51.660;5.824;2024-03-17T08:56:50;9.2;;;5.6;;
60718;SDS011;46567;51.660;5.824;2024-03-17T09:01:50;10.0;;;5.7;;
60718;SDS011;46567;51.660;5.824;2024-03-17T09:06:50;13.7;;;5.4;;
60718;SDS011;46567;51.660;5.824;2024-03-17T09:11:50;12.4;;;5.3;;
60718;SDS011;46567;51.660;5.824;2024-03-17T09:16:50;11.1;;;6.0;;
60718;SDS011;46567;51.660;5.824;2024-03-17T09:21:50;8.1;;;5.4;;
60718;SDS011;46567;51.660;5.824;2024-03-17T09:26:51;8.8;;;5.3;;
60718;SDS011;46567;51.660;5.824;2024-03-17T09:31:50;8.3;;;5.2;;
60718;SDS011;46567;51.660;5.824;2024-03-17T09:36:50;7.5;;;5.1;;
60718;SDS011;46567;51.660;5.824;2024-03-17T09:41:50;11.0;;;5.7;;
60718;SDS011;46567;51.660;5.824;2024-03-17T09:46:50;7.7;;;4.9;;
60718;SDS011;46567;51.660;5.824;2024-03-17T09:51:50;9.3;;;5.6;;
60718;SDS011;46567;51.660;5.824;2024-03-17T09:56:50;7.8;;;5.3;;
60718;SDS011;46567;51.660;5.824;2024-03-17T10:01:50;8.9;;;6.1;;
60718;SDS011;46567;51.660;5.824;2024-03-17T10:06:50;12.8;;;5.6;;
60718;SDS011;46567;51.660;5.824;2024-03-17T10:11:50;8.8;;;5.4;;
60718;SDS011;46567;51.660;5.824;2024-03-17T10:16:50;8.8;;;5.3;;
60718;SDS011;46567;51.660;5.824;2024-03-17T10:21:51;7.5;;;5.2;;
60718;SDS011;46567;51.660;5.824;2024-03-17T10:26:51;7.4;;;4.8;;
60718;SDS011;46567;51.660;5.824;2024-03-17T10:31:51;8.4;;;5.4;;
60718;SDS011;46567;51.660;5.824;2024-03-17T10:36:50;7.0;;;5.0;;
60718;SDS011;46567;51.660;5.824;2024-03-17T10:41:50;8.8;;;5.5;;
60718;SDS011;46567;51.660;5.824;2024-03-17T10:46:50;8.3;;;5.2;;
60718;SDS011;46567;51.660;5.824;2024-03-17T10:51:51;8.7;;;5.4;;
60718;SDS011;46567;51.660;5.824;2024-03-17T10:56:50;7.6;;;5.4;;
60718;SDS011;46567;51.660;5.824;2024-03-17T11:01:50;8.7;;;5.3;;
60718;SDS011;46567;51.660;5.824;2024-03-17T11:06:50;11.4;;;4.9;;
60718;SDS011;46567;51.660;5.824;2024-03-17T11:11:50;7.1;;;4.9;;
60718;SDS011;46567;51.660;5.824;2024-03-17T11:16:50;9.6;;;5.6;;
60718;SDS011;46567;51.660;5.824;2024-03-17T11:21:50;8.8;;;5.6;;
60718;SDS011;46567;51.660;5.824;2024-03-17T11:26:50;9.2;;;5.6;;
60718;SDS011;46567;51.660;5.824;2024-03-17T11:31:50;9.0;;;5.7;;
60718;SDS011;46567;51.660;5.824;2024-03-17T11:36:50;7.4;;;5.4;;
60718;SDS011;46567;51.660;5.824;2024-03-17T11:41:50;7.6;;;5.1;;
60718;SDS011;46567;51.660;5.824;2024-03-17T11:46:51;7.5;;;4.8;;
60718;SDS011;46567;51.660;5.824;2024-03-17T11:51:51;9.4;;;5.2;;
60718;SDS011;46567;51.660;5.824;2024-03-17T11:56:51;8.3;;;5.3;;
60718;SDS011;46567;51.660;5.824;2024-03-17T12:01:50;5.9;;;4.5;;
60718;SDS011;46567;51.660;5.824;2024-03-17T12:06:51;9.4;;;5.0;;
60718;SDS011;46567;51.660;5.824;2024-03-17T12:11:51;7.1;;;4.7;;
60718;SDS011;46567;51.660;5.824;2024-03-17T12:16:50;8.1;;;5.1;;
60718;SDS011;46567;51.660;5.824;2024-03-17T12:21:52;9.2;;;5.6;;
60718;SDS011;46567;51.660;5.824;2024-03-17T12:26:51;9.4;;;4.7;;
60718;SDS011;46567;51.660;5.824;2024-03-17T12:31:51;7.8;;;5.0;;
60718;SDS011;46567;51.660;5.824;2024-03-17T12:36:50;11.2;;;5.5;;
60718;SDS011;46567;51.660;5.824;2024-03-17T12:42:06;9.3;;;5.4;;
60718;SDS011;46567;51.660;5.824;2024-03-17T12:46:53;7.1;;;5.0;;
60718;SDS011;46567;51.660;5.824;2024-03-17T12:51:50;5.9;;;4.4;;
60718;SDS011;46567;51.660;5.824;2024-03-17T12:56:50;8.3;;;5.2;;
60718;SDS011;46567;51.660;5.824;2024-03-17T13:01:50;6.9;;;4.7;;
60718;SDS011;46567;51.660;5.824;2024-03-17T13:06:50;9.2;;;5.3;;
60718;SDS011;46567;51.660;5.824;2024-03-17T13:11:50;8.1;;;5.0;;
60718;SDS011;46567;51.660;5.824;2024-03-17T13:16:50;8.2;;;5.1;;
60718;SDS011;46567;51.660;5.824;2024-03-17T13:21:50;8.2;;;5.0;;
60718;SDS011;46567;51.660;5.824;2024-03-17T13:26:50;7.0;;;5.0;;
60718;SDS011;46567;51.660;5.824;2024-03-17T13:31:50;8.9;;;5.2;;
60718;SDS011;46567;51.660;5.824;2024-03-17T13:36:52;8.9;;;4.8;;
60718;SDS011;46567;51.660;5.824;2024-03-17T13:41:50;9.1;;;4.8;;
60718;SDS011;46567;51.660;5.824;2024-03-17T13:46:50;7.5;;;5.2;;
60718;SDS011;46567;51.660;5.824;2024-03-17T13:51:50;7.3;;;5.3;;
60718;SDS011;46567;51.660;5.824;2024-03-17T13:56:50;10.3;;;5.4;;
60718;SDS011;46567;51.660;5.824;2024-03-17T14:01:50;8.3;;;5.0;;
60718;SDS011;46567;51.660;5.824;2024-03-17T14:06:50;6.8;;;4.7;;
60718;SDS011;46567;51.660;5.824;2024-03-17T14:11:50;7.7;;;4.9;;
60718;SDS011;46567;51.660;5.824;2024-03-17T14:16:50;6.4;;;5.1;;
60718;SDS011;46567;51.660;5.824;2024-03-17T14:21:50;6.7;;;4.6;;
60718;SDS011;46567;51.660;5.824;2024-03-17T14:26:50;6.4;;;5.0;;
60718;SDS011;46567;51.660;5.824;2024-03-17T14:31:50;8.0;;;4.9;;
60718;SDS011;46567;51.660;5.824;2024-03-17T14:36:50;7.2;;;5.3;;
60718;SDS011;46567;51.660;5.824;2024-03-17T14:41:50;10.0;;;5.3;;
60718;SDS011;46567;51.660;5.824;2024-03-17T14:46:50;11.0;;;5.9;;
60718;SDS011;46567;51.660;5.824;2024-03-17T14:51:50;8.2;;;5.0;;
60718;SDS011;46567;51.660;5.824;2024-03-17T14:56:50;7.2;;;4.5;;
60718;SDS011;46567;51.660;5.824;2024-03-17T15:01:50;8.0;;;5.0;;
60718;SDS011;46567;51.660;5.824;2024-03-17T15:06:50;7.6;;;4.6;;
60718;SDS011;46567;51.660;5.824;2024-03-17T15:11:50;7.5;;;4.9;;
60718;SDS011;46567;51.660;5.824;2024-03-17T15:16:50;8.5;;;3.9;;
60718;SDS011;46567;51.660;5.824;2024-03-17T15:21:50;6.0;;;3.7;;
60718;SDS011;46567;51.660;5.824;2024-03-17T15:26:50;6.6;;;4.4;;
60718;SDS011;46567;51.660;5.824;2024-03-17T15:31:50;6.9;;;4.2;;
60718;SDS011;46567;51.660;5.824;2024-03-17T15:36:50;5.8;;;3.6;;
60718;SDS011;46567;51.660;5.824;2024-03-17T15:41:50;5.4;;;4.3;;
60718;SDS011;46567;51.660;5.824;2024-03-17T15:46:50;5.8;;;3.6;;
60718;SDS011;46567;51.660;5.824;2024-03-17T15:51:50;6.2;;;3.9;;
60718;SDS011;46567;51.660;5.824;2024-03-17T15:56:50;11.0;;;4.3;;
60718;SDS011;46567;51.660;5.824;2024-03-17T16:01:50;6.3;;;3.8;;
60718;SDS011;46567;51.660;5.824;2024-03-17T16:06:50;5.5;;;3.9;;
60718;SDS011;46567;51.660;5.824;2024-03-17T16:11:50;9.2;;;3.7;;
60718;SDS011;46567;51.660;5.824;2024-03-17T16:16:50;6.5;;;4.2;;
60718;SDS011;46567;51.660;5.824;2024-03-17T16:21:50;6.6;;;3.7;;
60718;SDS011;46567;51.660;5.824;2024-03-17T16:26:50;8.2;;;4.1;;
60718;SDS011;46567;51.660;5.824;2024-03-17T16:36:50;9.1;;;4.2;;
60718;SDS011;46567;51.660;5.824;2024-03-17T16:41:50;11.8;;;3.9;;
60718;SDS011;46567;51.660;5.824;2024-03-17T16:47:34;8.7;;;4.3;;
60718;SDS011;46567;51.660;5.824;2024-03-17T16:51:50;7.5;;;4.3;;
60718;SDS011;46567;51.660;5.824;2024-03-17T16:56:50;7.5;;;4.5;;
60718;SDS011;46567;51.660;5.824;2024-03-17T17:01:50;8.7;;;4.5;;
60718;SDS011;46567;51.660;5.824;2024-03-17T17:06:50;6.0;;;4.0;;
60718;SDS011;46567;51.660;5.824;2024-03-17T17:11:50;10.2;;;4.6;;
60718;SDS011;46567;51.660;5.824;2024-03-17T17:16:50;7.0;;;4.5;;
60718;SDS011;46567;51.660;5.824;2024-03-17T17:21:50;10.4;;;4.8;;
60718;SDS011;46567;51.660;5.824;2024-03-17T17:26:50;7.8;;;4.7;;
60718;SDS011;46567;51.660;5.824;2024-03-17T17:31:50;7.6;;;4.5;;
60718;SDS011;46567;51.660;5.824;2024-03-17T17:36:50;14.2;;;4.9;;
60718;SDS011;46567;51.660;5.824;2024-03-17T17:41:50;10.5;;;5.0;;
60718;SDS011;46567;51.660;5.824;2024-03-17T17:46:50;8.2;;;4.8;;
60718;SDS011;46567;51.660;5.824;2024-03-17T17:51:50;9.7;;;4.6;;
60718;SDS011;46567;51.660;5.824;2024-03-17T17:56:50;9.8;;;5.2;;
60718;SDS011;46567;51.660;5.824;2024-03-17T18:01:50;8.2;;;5.4;;
60718;SDS011;46567;51.660;5.824;2024-03-17T18:06:50;7.4;;;5.1;;
60718;SDS011;46567;51.660;5.824;2024-03-17T18:11:50;10.8;;;5.1;;
60718;SDS011;46567;51.660;5.824;2024-03-17T18:16:50;12.5;;;5.2;;
60718;SDS011;46567;51.660;5.824;2024-03-17T18:21:50;8.3;;;5.0;;
60718;SDS011;46567;51.660;5.824;2024-03-17T18:26:50;6.6;;;4.7;;
60718;SDS011;46567;51.660;5.824;2024-03-17T18:31:50;7.9;;;4.7;;
60718;SDS011;46567;51.660;5.824;2024-03-17T18:36:50;8.4;;;4.7;;
60718;SDS011;46567;51.660;5.824;2024-03-17T18:41:50;7.5;;;5.3;;
60718;SDS011;46567;51.660;5.824;2024-03-17T18:46:50;9.6;;;5.1;;
60718;SDS011;46567;51.660;5.824;2024-03-17T18:51:50;9.9;;;5.9;;
60718;SDS011;46567;51.660;5.824;2024-03-17T18:56:50;9.7;;;5.2;;
60718;SDS011;46567;51.660;5.824;2024-03-17T19:01:50;10.2;;;5.8;;
60718;SDS011;46567;51.660;5.824;2024-03-17T19:06:50;10.7;;;5.5;;
60718;SDS011;46567;51.660;5.824;2024-03-17T19:16:50;9.2;;;5.5;;
60718;SDS011;46567;51.660;5.824;2024-03-17T19:21:50;10.4;;;5.7;;
60718;SDS011;46567;51.660;5.824;2024-03-17T19:26:50;8.7;;;5.5;;
60718;SDS011;46567;51.660;5.824;2024-03-17T19:31:50;7.8;;;5.6;;
60718;SDS011;46567;51.660;5.824;2024-03-17T19:36:50;8.7;;;5.4;;
60718;SDS011;46567;51.660;5.824;2024-03-17T19:41:50;9.8;;;7.0;;
60718;SDS011;46567;51.660;5.824;2024-03-17T19:46:50;8.3;;;5.0;;
60718;SDS011;46567;51.660;5.824;2024-03-17T19:51:50;8.9;;;5.6;;
60718;SDS011;46567;51.660;5.824;2024-03-17T19:56:50;9.9;;;6.0;;
60718;SDS011;46567;51.660;5.824;2024-03-17T20:01:50;9.3;;;5.7;;
60718;SDS011;46567;51.660;5.824;2024-03-17T20:06:50;8.6;;;5.5;;
60718;SDS011;46567;51.660;5.824;2024-03-17T20:11:50;9.2;;;5.7;;
60718;SDS011;46567;51.660;5.824;2024-03-17T20:21:50;10.1;;;6.8;;
60718;SDS011;46567;51.660;5.824;2024-03-17T20:26:50;9.9;;;7.2;;
60718;SDS011;46567;51.660;5.824;2024-03-17T20:31:50;9.1;;;6.2;;
60718;SDS011;46567;51.660;5.824;2024-03-17T20:36:50;9.3;;;6.1;;
60718;SDS011;46567;51.660;5.824;2024-03-17T20:41:50;9.7;;;5.9;;
60718;SDS011;46567;51.660;5.824;2024-03-17T20:46:50;10.1;;;6.1;;
60718;SDS011;46567;51.660;5.824;2024-03-17T20:51:50;11.3;;;6.4;;
60718;SDS011;46567;51.660;5.824;2024-03-17T20:56:50;8.7;;;5.9;;
60718;SDS011;46567;51.660;5.824;2024-03-17T21:01:50;9.4;;;5.8;;
60718;SDS011;46567;51.660;5.824;2024-03-17T21:06:50;10.8;;;6.3;;
60718;SDS011;46567;51.660;5.824;2024-03-17T21:11:50;14.8;;;8.0;;
60718;SDS011;46567;51.660;5.824;2024-03-17T21:16:51;11.4;;;7.2;;
60718;SDS011;46567;51.660;5.824;2024-03-17T21:21:51;12.3;;;7.2;;
60718;SDS011;46567;51.660;5.824;2024-03-17T21:26:50;9.5;;;8.3;;
60718;SDS011;46567;51.660;5.824;2024-03-17T21:31:51;8.1;;;5.9;;
60718;SDS011;46567;51.660;5.824;2024-03-17T21:36:50;12.2;;;7.4;;
60718;SDS011;46567;51.660;5.824;2024-03-17T21:41:51;7.5;;;5.8;;
60718;SDS011;46567;51.660;5.824;2024-03-17T21:46:51;6.7;;;4.5;;
60718;SDS011;46567;51.660;5.824;2024-03-17T21:51:50;9.2;;;5.1;;
60718;SDS011;46567;51.660;5.824;2024-03-17T21:56:50;6.8;;;4.6;;
60718;SDS011;46567;51.660;5.824;2024-03-17T22:01:50;7.7;;;3.9;;
60718;SDS011;46567;51.660;5.824;2024-03-17T22:06:51;7.1;;;4.7;;
60718;SDS011;46567;51.660;5.824;2024-03-17T22:11:51;8.9;;;4.8;;
60718;SDS011;46567;51.660;5.824;2024-03-17T22:16:50;6.8;;;5.2;;
60718;SDS011;46567;51.660;5.824;2024-03-17T22:21:50;8.3;;;5.7;;
60718;SDS011;46567;51.660;5.824;2024-03-17T22:26:50;11.3;;;8.2;;
60718;SDS011;46567;51.660;5.824;2024-03-17T22:31:50;8.8;;;6.0;;
60718;SDS011;46567;51.660;5.824;2024-03-17T22:36:50;10.0;;;5.5;;
60718;SDS011;46567;51.660;5.824;2024-03-17T22:41:51;10.1;;;5.9;;
60718;SDS011;46567;51.660;5.824;2024-03-17T22:46:50;9.8;;;6.4;;
60718;SDS011;46567;51.660;5.824;2024-03-17T22:51:50;10.9;;;6.8;;
60718;SDS011;46567;51.660;5.824;2024-03-17T22:56:50;9.7;;;6.9;;
60718;SDS011;46567;51.660;5.824;2024-03-17T23:01:50;8.2;;;5.7;;
60718;SDS011;46567;51.660;5.824;2024-03-17T23:06:50;7.6;;;5.6;;
60718;SDS011;46567;51.660;5.824;2024-03-17T23:11:50;7.5;;;4.9;;
60718;SDS011;46567;51.660;5.824;2024-03-17T23:16:50;9.1;;;5.1;;
60718;SDS011;46567;51.660;5.824;2024-03-17T23:21:50;10.6;;;5.6;;
60718;SDS011;46567;51.660;5.824;2024-03-17T23:26:50;7.8;;;5.1;;
60718;SDS011;46567;51.660;5.824;2024-03-17T23:31:50;6.8;;;5.0;;
60718;SDS011;46567;51.660;5.824;2024-03-17T23:36:50;7.7;;;5.5;;
60718;SDS011;46567;51.660;5.824;2024-03-17T23:41:50;8.7;;;5.6;;
60718;SDS011;46567;51.660;5.824;2024-03-17T23:46:50;9.0;;;5.1;;
60718;SDS011;46567;51.660;5.824;2024-03-17T23:51:51;9.0;;;5.4;;
60718;SDS011;46567;51.660;5.824;2024-03-17T23:56:50;7.8;;;5.3;;
